Thursday, November 23, 2017, 1:26 PM EST
Back to Local

KROC, Greater Rochester International

Location: Rochester, NY, United States Lat: 43.117
Local Time: 1:26 PM EST (18:26 GMT) Lon: -77.683
Time Zone: US/Eastern Elev: 557 ft

Show me the last for .
Show Decoded

2017-11-23 12:54 METAR KROC 231754Z 23011KT 10SM OVC028 01/M04 A3003 RMK AO2 SLP177 T00111039
                 10011 21017 58026 =
2017-11-23 11:54 METAR KROC 231654Z 21008KT 10SM OVC027 01/M05 A3005 RMK AO2 SLP186 T00061050 =
2017-11-23 11:44 METAR KROC 231644Z 22008KT 10SM OVC029 01/M05 A3006 RMK AO2 T00061050 =
2017-11-23 10:54 METAR KROC 231554Z 23009KT 10SM OVC034 01/M05 A3009 RMK AO2 SLP199 T00061050 =
2017-11-23 09:54 METAR KROC 231454Z 22008KT 10SM FEW045 BKN100 BKN140 01/M05 A3010 RMK AO2 SLP204
                 T00061050 58004 =
2017-11-23 08:54 METAR KROC 231354Z 23007KT 10SM FEW060 BKN110 BKN160 M01/M05 A3013 RMK AO2
                 SLP212 T10061050 =
2017-11-23 07:54 METAR KROC 231254Z 23005KT 10SM BKN120 BKN160 M01/M05 A3012 RMK AO2 SLP209
                 T10111050 =
2017-11-23 06:54 METAR KROC 231154Z 24007KT 10SM SCT040 M01/M06 A3012 RMK AO2 SLP208 T10111056
                 11011 21017 56014 =
2017-11-23 05:54 METAR KROC 231054Z 22003KT 10SM OVC036 M01/M06 A3013 RMK AO2 SLP212 T10111056 =
2017-11-23 04:54 METAR KROC 230954Z 26003KT 10SM OVC035 M01/M06 A3014 RMK AO2 SLP217 T10111056 =
2017-11-23 03:54 METAR KROC 230854Z 24007KT 10SM OVC032 M01/M06 A3016 RMK AO2 SLP222 T10111061
                 58002 =
2017-11-23 02:54 METAR KROC 230754Z 25008KT 10SM BKN033 OVC040 M02/M06 A3016 RMK AO2 SLP224
                 T10171061 =
2017-11-23 01:54 METAR KROC 230654Z 26007KT 10SM OVC037 M02/M06 A3016 RMK AO2 SLP224 T10171061 =
2017-11-23 00:54 METAR KROC 230554Z 25006KT 10SM OVC035 M02/M07 A3016 RMK AO2 SLP224 60000
                 T10171067 11006 21017 56010 =
2017-11-22 23:54 METAR KROC 230454Z 27008KT 10SM OVC031 M01/M07 A3017 RMK AO2 SLP226 T10111067
                 400671011 =
2017-11-22 22:54 METAR KROC 230354Z 28008KT 10SM OVC030 M01/M07 A3018 RMK AO2 SLP229 T10111067 =
2017-11-22 21:54 METAR KROC 230254Z 28009KT 10SM OVC031 M01/M07 A3019 RMK AO2 SLP234 60000
                 T10061067 58004 =
2017-11-22 20:54 METAR KROC 230154Z 30007KT 10SM OVC034 M01/M06 A3020 RMK AO2 SNE43 SLP236 P0000
                 T10061061 =
2017-11-22 19:54 METAR KROC 230054Z 33011G16KT 9SM -SN OVC030 M01/M06 A3021 RMK AO2 SLP238 P0000
                 T10061061 =
2017-11-22 19:41 METAR KROC 230041Z 31009KT 9SM -SN BKN028 OVC033 M01/M06 A3021 RMK AO2 P0000
                 T10061056 =
2017-11-22 18:54 METAR KROC 222354Z 32009KT 9SM -SN OVC031 M01/M06 A3021 RMK AO2 SLP238 PCPN VRY
                 LGT P0000 60000 T10061056 10011 21006 51016 =
2017-11-22 18:25 METAR KROC 222325Z 32009KT 9SM -SN OVC031 M01/M06 A3020 RMK AO2 P0000 T10061056
                 =
2017-11-22 17:54 METAR KROC 222254Z 31008KT 9SM -SN OVC029 M01/M06 A3019 RMK AO2 SNB41 SLP234
                 PCPN VRY LGT P0000 T10061056 =
2017-11-22 17:23 METAR KROC 222223Z 30008KT 10SM OVC029 00/M05 A3019 RMK AO2 T00001050 =
2017-11-22 16:54 METAR KROC 222154Z 31012KT 10SM SCT027 OVC034 00/M05 A3018 RMK AO2 SLP229
                 T00001050 =
2017-11-22 15:54 METAR KROC 222054Z 32011KT 10SM OVC032 00/M05 A3016 RMK AO2 SLP221 T00001050
                 53016 =
2017-11-22 14:54 METAR KROC 221954Z 31011KT 10SM OVC032 00/M05 A3013 RMK AO2 SLP211 T00001050 =
2017-11-22 13:54 METAR KROC 221854Z 31011G22KT 10SM OVC030 01/M05 A3012 RMK AO2 SLP209 T00061050
                 =

Support USWX by starting your Amazon purchase here.